createdAt,value
2022-12-07T00:02:06.124Z,7.25
2022-12-07T00:04:34.725Z,6.20
2022-12-07T00:07:03.934Z,6.70
2022-12-07T00:09:33.202Z,6.35
2022-12-07T00:12:01.751Z,6.38
2022-12-07T00:14:30.316Z,9.70
2022-12-07T00:17:01.282Z,9.00
2022-12-07T00:19:29.907Z,6.50
2022-12-07T00:21:58.917Z,5.82
2022-12-07T00:24:27.976Z,4.50
2022-12-07T00:26:56.751Z,4.40
2022-12-07T00:29:25.822Z,4.50
2022-12-07T00:31:54.500Z,4.22
2022-12-07T00:34:24.524Z,4.20
2022-12-07T00:36:53.423Z,3.83
2022-12-07T00:39:22.165Z,4.65
2022-12-07T00:41:50.734Z,4.88
2022-12-07T00:44:19.541Z,4.60
2022-12-07T00:46:48.341Z,4.05
2022-12-07T00:49:16.889Z,4.20
2022-12-07T00:51:47.046Z,4.75
2022-12-07T00:54:15.837Z,4.57
2022-12-07T00:56:44.660Z,4.40
2022-12-07T00:59:17.116Z,4.45
2022-12-07T01:01:46.077Z,4.00
2022-12-07T01:04:14.678Z,4.50
2022-12-07T01:06:43.269Z,4.38
2022-12-07T01:09:13.383Z,4.70
2022-12-07T01:11:42.516Z,4.35
2022-12-07T01:14:11.797Z,4.45
2022-12-07T01:16:41.544Z,4.63
2022-12-07T01:19:10.593Z,4.22
2022-12-07T01:21:40.751Z,4.57
2022-12-07T01:24:13.754Z,4.40
2022-12-07T01:26:42.958Z,5.13
2022-12-07T01:29:11.702Z,4.85
2022-12-07T01:31:40.445Z,4.93
2022-12-07T01:34:09.010Z,4.53
2022-12-07T01:36:39.420Z,4.88
2022-12-07T01:39:10.947Z,4.47
2022-12-07T01:41:44.627Z,4.88
2022-12-07T01:44:19.273Z,4.55
2022-12-07T01:46:50.024Z,5.13
2022-12-07T01:49:41.198Z,4.28
2022-12-07T01:52:18.591Z,4.70
2022-12-07T01:54:49.084Z,4.10
2022-12-07T01:57:20.440Z,4.13
2022-12-07T01:59:51.632Z,3.75
2022-12-07T02:02:24.017Z,3.75
2022-12-07T02:04:54.698Z,4.05
2022-12-07T02:07:25.160Z,4.25
2022-12-07T02:09:53.708Z,4.57
2022-12-07T02:12:25.027Z,4.05
2022-12-07T02:14:54.073Z,4.63
2022-12-07T02:17:33.515Z,4.10
2022-12-07T02:20:19.003Z,4.43
2022-12-07T02:23:32.176Z,4.60
2022-12-07T02:26:22.967Z,4.05
2022-12-07T02:29:11.366Z,4.85
2022-12-07T02:31:46.149Z,4.90
2022-12-07T02:34:26.719Z,4.00
2022-12-07T02:37:01.331Z,3.92
2022-12-07T02:39:39.639Z,4.07
2022-12-07T02:42:17.780Z,3.78
2022-12-07T02:44:48.783Z,3.85
2022-12-07T02:47:19.998Z,3.63
2022-12-07T02:49:49.295Z,3.25
2022-12-07T02:52:17.998Z,2.38
2022-12-07T02:54:47.079Z,1.85
2022-12-07T02:57:35.001Z,2.17
2022-12-07T03:00:10.225Z,2.33
2022-12-07T03:02:51.940Z,2.33
2022-12-07T03:05:52.469Z,2.65
2022-12-07T03:08:30.559Z,3.20
2022-12-07T03:11:03.841Z,2.63
2022-12-07T03:13:43.811Z,2.70
2022-12-07T03:16:18.723Z,2.55
2022-12-07T03:18:51.834Z,2.92
2022-12-07T03:21:26.131Z,2.80
2022-12-07T03:23:59.360Z,3.00
2022-12-07T03:26:34.667Z,2.90
2022-12-07T03:29:12.687Z,2.25
2022-12-07T03:31:46.213Z,1.90
2022-12-07T03:34:21.162Z,2.40
2022-12-07T03:36:55.314Z,2.40
2022-12-07T03:39:29.290Z,2.50
2022-12-07T03:41:59.385Z,2.13
2022-12-07T03:44:29.062Z,2.50
2022-12-07T03:47:06.650Z,2.17
2022-12-07T03:49:43.144Z,1.90
2022-12-07T03:52:21.123Z,2.20
2022-12-07T03:54:56.458Z,1.70
2022-12-07T03:57:26.836Z,1.95
2022-12-07T03:59:57.912Z,1.80
2022-12-07T04:02:30.555Z,1.50
2022-12-07T04:04:59.422Z,2.10
2022-12-07T04:07:28.454Z,2.05
2022-12-07T04:09:57.083Z,1.80
2022-12-07T04:12:25.780Z,2.20
2022-12-07T04:14:54.863Z,1.70
2022-12-07T04:17:23.417Z,2.10
2022-12-07T04:19:53.424Z,1.48
2022-12-07T04:22:22.006Z,1.90
2022-12-07T04:24:50.551Z,1.60
2022-12-07T04:27:19.206Z,1.50
2022-12-07T04:29:47.809Z,1.80
2022-12-07T04:32:16.846Z,1.90
2022-12-07T04:34:45.385Z,1.90
2022-12-07T04:37:15.488Z,2.00
2022-12-07T04:39:45.872Z,2.17
2022-12-07T04:42:14.922Z,2.08
2022-12-07T04:44:43.495Z,2.30
2022-12-07T04:47:12.104Z,2.05
2022-12-07T04:49:41.182Z,2.38
2022-12-07T04:52:10.252Z,2.00
2022-12-07T04:54:40.418Z,1.90
2022-12-07T04:57:08.981Z,1.60
2022-12-07T04:59:43.815Z,2.05
2022-12-07T05:02:14.529Z,3.08
2022-12-07T05:04:43.108Z,2.67
2022-12-07T05:07:11.692Z,4.20
2022-12-07T05:09:41.677Z,13.35
2022-12-07T05:12:10.282Z,5.30
2022-12-07T05:14:39.109Z,5.25
2022-12-07T05:17:07.953Z,3.13
2022-12-07T05:19:36.488Z,2.58
2022-12-07T05:22:05.240Z,1.85
2022-12-07T05:24:34.025Z,2.10
2022-12-07T05:27:03.971Z,2.00
2022-12-07T05:29:32.969Z,1.88
2022-12-07T05:32:01.860Z,1.92
2022-12-07T05:34:30.411Z,1.98
2022-12-07T05:36:59.182Z,2.55
2022-12-07T05:39:27.987Z,1.90
2022-12-07T05:42:14.961Z,2.30
2022-12-07T05:44:47.491Z,1.90
2022-12-07T05:47:17.753Z,1.90
2022-12-07T05:49:47.027Z,2.53
2022-12-07T05:52:15.874Z,2.13
2022-12-07T05:54:44.891Z,2.25
2022-12-07T05:57:13.717Z,1.90
2022-12-07T05:59:41.726Z,2.28
2022-12-07T06:02:14.992Z,1.88
2022-12-07T06:04:46.838Z,2.33
2022-12-07T06:07:18.531Z,2.63
2022-12-07T06:09:47.600Z,2.22
2022-12-07T06:12:33.610Z,2.08
2022-12-07T06:15:03.192Z,2.30
2022-12-07T06:17:33.157Z,2.10
2022-12-07T06:20:02.207Z,1.88
2022-12-07T06:22:31.255Z,2.10
2022-12-07T06:25:02.725Z,2.05
2022-12-07T06:27:34.981Z,2.22
2022-12-07T06:30:07.393Z,1.90
2022-12-07T06:32:39.390Z,2.10
2022-12-07T06:35:09.045Z,1.95
2022-12-07T06:37:37.854Z,1.65
2022-12-07T06:40:08.542Z,2.15
2022-12-07T06:42:37.207Z,2.20
2022-12-07T06:45:06.770Z,2.05
2022-12-07T06:47:41.726Z,2.10
2022-12-07T06:50:13.219Z,2.72
2022-12-07T06:52:42.269Z,2.00
2022-12-07T06:55:11.440Z,1.90
2022-12-07T06:57:40.296Z,1.88
2022-12-07T07:00:10.783Z,2.20
2022-12-07T07:02:40.790Z,2.15
2022-12-07T07:05:10.388Z,2.05
2022-12-07T07:07:58.189Z,2.08
2022-12-07T07:10:27.701Z,2.13
2022-12-07T07:12:57.789Z,2.10
2022-12-07T07:15:26.920Z,1.98
2022-12-07T07:17:57.148Z,2.00
2022-12-07T07:20:26.143Z,2.25
2022-12-07T07:22:57.243Z,1.98
2022-12-07T07:25:26.341Z,2.15
2022-12-07T07:27:54.871Z,2.08
2022-12-07T07:30:23.996Z,2.40
2022-12-07T07:32:53.000Z,2.10
2022-12-07T07:35:22.919Z,1.85
2022-12-07T07:37:51.748Z,2.33
2022-12-07T07:40:20.567Z,1.90
2022-12-07T07:42:50.475Z,2.05
2022-12-07T07:45:19.401Z,2.20
2022-12-07T07:47:48.249Z,1.98
2022-12-07T07:50:18.107Z,2.75
2022-12-07T07:52:48.732Z,2.65
2022-12-07T07:55:17.721Z,3.10
2022-12-07T07:57:52.845Z,2.60
2022-12-07T08:00:24.423Z,2.67
2022-12-07T08:02:53.223Z,2.42
2022-12-07T08:05:21.849Z,2.45
2022-12-07T08:07:51.782Z,2.72
2022-12-07T08:10:20.448Z,2.10
2022-12-07T08:13:06.644Z,2.05
2022-12-07T08:15:35.186Z,2.30
2022-12-07T08:18:04.270Z,1.95
2022-12-07T08:20:33.893Z,1.77
2022-12-07T08:23:04.851Z,1.92
2022-12-07T08:25:34.914Z,1.90
2022-12-07T08:28:04.165Z,2.42
2022-12-07T08:30:33.278Z,2.15
2022-12-07T08:33:02.344Z,2.35
2022-12-07T08:35:30.921Z,1.75
2022-12-07T08:37:59.508Z,2.10
2022-12-07T08:40:29.466Z,2.13
2022-12-07T08:42:58.043Z,2.13
2022-12-07T08:45:27.666Z,2.33
2022-12-07T08:48:02.166Z,2.45
2022-12-07T08:50:31.143Z,1.85
2022-12-07T08:53:01.322Z,2.30
2022-12-07T08:55:31.891Z,2.30
2022-12-07T08:58:01.125Z,2.33
2022-12-07T09:00:30.480Z,2.33
2022-12-07T09:02:59.284Z,2.50
2022-12-07T09:05:28.598Z,2.17
2022-12-07T09:08:02.253Z,2.05
2022-12-07T09:10:32.722Z,2.40
2022-12-07T09:13:02.330Z,2.03
2022-12-07T09:15:32.371Z,2.20
2022-12-07T09:18:01.231Z,1.90
2022-12-07T09:20:29.844Z,2.22
2022-12-07T09:22:58.596Z,1.98
2022-12-07T09:25:27.768Z,2.03
2022-12-07T09:28:01.742Z,2.80
2022-12-07T09:30:31.087Z,1.80
2022-12-07T09:33:00.186Z,2.08
2022-12-07T09:35:29.395Z,1.88
2022-12-07T09:37:57.938Z,2.03
2022-12-07T09:40:26.925Z,1.85
2022-12-07T09:42:57.557Z,1.90
2022-12-07T09:45:36.233Z,1.60
2022-12-07T09:48:06.315Z,1.65
2022-12-07T09:50:34.865Z,1.80
2022-12-07T09:53:10.996Z,1.83
2022-12-07T09:55:40.711Z,1.83
2022-12-07T09:58:14.611Z,1.77
2022-12-07T10:00:44.519Z,2.00
2022-12-07T10:03:14.617Z,2.70
2022-12-07T10:05:46.999Z,2.22
2022-12-07T10:08:17.253Z,2.03
2022-12-07T10:10:47.797Z,1.75
2022-12-07T10:13:21.832Z,1.67
2022-12-07T10:15:55.077Z,1.90
2022-12-07T10:18:32.480Z,1.70
2022-12-07T10:21:17.516Z,1.73
2022-12-07T10:24:03.719Z,2.55
2022-12-07T10:26:35.990Z,1.90
2022-12-07T10:29:17.401Z,2.00
2022-12-07T10:31:49.034Z,1.45
2022-12-07T10:34:26.264Z,2.03
2022-12-07T10:36:56.152Z,1.80
2022-12-07T10:39:26.016Z,2.00
2022-12-07T10:42:00.061Z,2.00
2022-12-07T10:44:31.456Z,2.15
2022-12-07T10:47:30.310Z,2.00
2022-12-07T10:50:39.829Z,2.83
2022-12-07T10:53:40.695Z,1.63
2022-12-07T10:56:38.151Z,1.30
2022-12-07T10:59:34.711Z,1.48
2022-12-07T11:02:27.168Z,1.48
2022-12-07T11:05:06.744Z,1.23
2022-12-07T11:07:49.763Z,1.50
2022-12-07T11:10:32.524Z,1.30
2022-12-07T11:13:28.767Z,1.10
2022-12-07T11:16:16.647Z,1.40
2022-12-07T11:19:02.069Z,1.40
2022-12-07T11:21:36.959Z,1.33
2022-12-07T11:24:13.220Z,1.30
2022-12-07T11:27:03.939Z,1.65
2022-12-07T11:30:11.639Z,1.50
2022-12-07T11:33:05.661Z,1.35
2022-12-07T11:38:46.692Z,1.20
2022-12-07T11:41:17.013Z,1.40
2022-12-07T11:43:57.499Z,1.40
2022-12-07T11:46:30.370Z,1.10
2022-12-07T11:49:10.720Z,0.95
2022-12-07T11:51:42.121Z,1.85
2022-12-07T11:54:19.842Z,1.58
2022-12-07T11:56:52.597Z,2.45
2022-12-07T11:59:32.111Z,1.70
2022-12-07T12:02:10.730Z,1.20
2022-12-07T12:04:53.651Z,1.50
2022-12-07T12:10:26.686Z,1.60
2022-12-07T12:16:56.585Z,1.60
2022-12-07T12:19:35.481Z,2.33
2022-12-07T12:22:15.640Z,1.77
2022-12-07T12:24:48.566Z,1.90
2022-12-07T12:27:26.349Z,2.30
2022-12-07T12:29:58.207Z,1.40
2022-12-07T12:32:39.085Z,1.40
2022-12-07T12:35:30.112Z,1.50
2022-12-07T12:38:35.636Z,1.30
2022-12-07T12:41:05.981Z,1.63
2022-12-07T12:43:54.678Z,2.20
2022-12-07T12:46:57.547Z,1.63
2022-12-07T12:50:22.497Z,3.15
2022-12-07T12:53:23.299Z,3.38
2022-12-07T12:56:35.614Z,1.35
2022-12-07T12:59:27.577Z,1.33
2022-12-07T13:02:09.861Z,1.40
2022-12-07T13:05:02.002Z,1.10
2022-12-07T13:07:56.605Z,1.25
2022-12-07T13:10:46.836Z,1.17
2022-12-07T13:13:38.922Z,1.38
2022-12-07T13:16:42.992Z,1.30
2022-12-07T13:20:03.801Z,1.70
2022-12-07T13:22:54.575Z,1.23
2022-12-07T13:25:47.542Z,1.30
2022-12-07T13:28:19.949Z,1.50
2022-12-07T13:31:02.613Z,1.30
2022-12-07T13:33:32.913Z,1.70
2022-12-07T13:36:02.318Z,1.67
2022-12-07T13:38:34.813Z,2.08
2022-12-07T13:41:15.763Z,2.00
2022-12-07T13:43:53.421Z,1.60
2022-12-07T13:46:32.485Z,3.58
2022-12-07T13:49:01.343Z,6.50
2022-12-07T13:51:37.151Z,3.22
2022-12-07T13:54:14.378Z,1.70
2022-12-07T13:56:43.798Z,1.75
2022-12-07T13:59:22.156Z,1.75
2022-12-07T14:01:54.398Z,1.73
2022-12-07T14:04:35.113Z,1.35
2022-12-07T14:07:22.025Z,1.65
2022-12-07T14:09:59.106Z,1.30
2022-12-07T14:12:30.641Z,1.58
2022-12-07T14:15:01.257Z,1.35
2022-12-07T14:17:31.726Z,1.33
2022-12-07T14:20:02.337Z,1.30
2022-12-07T14:22:36.172Z,1.33
2022-12-07T14:25:24.565Z,1.30
2022-12-07T14:27:59.540Z,1.55
2022-12-07T14:30:31.181Z,1.40
2022-12-07T14:33:04.041Z,1.10
2022-12-07T14:35:34.521Z,0.90
2022-12-07T14:38:03.109Z,1.10
2022-12-07T14:40:32.619Z,1.17
2022-12-07T14:43:04.789Z,1.13
2022-12-07T14:45:33.907Z,1.02
2022-12-07T14:53:51.392Z,1.25
2022-12-07T14:56:23.891Z,1.02
2022-12-07T14:58:53.247Z,1.13
2022-12-07T15:01:22.111Z,1.02
2022-12-07T15:03:52.121Z,1.08
2022-12-07T15:06:21.233Z,1.20
2022-12-07T15:08:50.516Z,1.08
2022-12-07T15:11:20.606Z,1.10
2022-12-07T15:14:06.735Z,1.00
2022-12-07T15:16:52.834Z,1.20
2022-12-07T15:19:28.900Z,1.20
2022-12-07T15:21:58.600Z,1.20
2022-12-07T15:24:27.981Z,1.08
2022-12-07T15:26:56.584Z,1.00
2022-12-07T15:29:25.679Z,1.10
2022-12-07T15:31:56.970Z,1.00
2022-12-07T15:34:34.871Z,1.13
2022-12-07T15:37:08.932Z,1.30
2022-12-07T15:39:38.326Z,1.20
2022-12-07T15:42:07.169Z,1.17
2022-12-07T15:44:53.335Z,1.20
2022-12-07T15:47:22.080Z,1.20
2022-12-07T15:49:52.017Z,1.17
2022-12-07T15:52:21.299Z,1.20
2022-12-07T15:54:50.113Z,1.30
2022-12-07T15:57:23.719Z,1.23
2022-12-07T15:59:54.796Z,1.38
2022-12-07T16:02:24.046Z,1.20
2022-12-07T16:04:55.498Z,1.30
2022-12-07T16:07:24.333Z,1.30
2022-12-07T16:09:53.057Z,1.50
2022-12-07T16:12:21.663Z,1.17
2022-12-07T16:14:50.222Z,1.20
2022-12-07T16:17:19.235Z,1.40
2022-12-07T16:19:47.821Z,1.20
2022-12-07T16:22:17.972Z,1.20
2022-12-07T16:24:46.824Z,1.05
2022-12-07T16:27:15.446Z,1.10
2022-12-07T16:29:44.005Z,1.05
2022-12-07T16:32:12.884Z,1.20
2022-12-07T16:34:42.588Z,1.90
2022-12-07T16:37:11.171Z,1.35
2022-12-07T16:39:41.375Z,1.27
2022-12-07T16:42:09.957Z,1.42
2022-12-07T16:44:38.528Z,1.20
2022-12-07T16:47:09.364Z,1.40
2022-12-07T16:49:38.191Z,1.80
2022-12-07T16:52:19.889Z,1.33
2022-12-07T16:54:51.664Z,1.33
2022-12-07T16:57:23.356Z,1.08
2022-12-07T16:59:53.115Z,1.48
2022-12-07T17:02:22.081Z,1.42
2022-12-07T17:04:50.869Z,1.40
2022-12-07T17:07:19.855Z,1.50
2022-12-07T17:09:49.876Z,1.50
2022-12-07T17:12:19.388Z,1.40
2022-12-07T17:15:05.827Z,1.50
2022-12-07T17:17:34.917Z,1.40
2022-12-07T17:20:03.756Z,1.77
2022-12-07T17:22:32.475Z,1.60
2022-12-07T17:25:02.650Z,1.75
2022-12-07T17:27:32.184Z,1.88
2022-12-07T17:30:01.256Z,1.85
2022-12-07T17:32:30.135Z,2.65
2022-12-07T17:34:58.976Z,2.90
2022-12-07T17:37:27.843Z,2.60
2022-12-07T17:39:58.443Z,2.53
2022-12-07T17:42:37.719Z,1.80
2022-12-07T17:45:08.548Z,1.90
2022-12-07T17:47:37.818Z,1.80
2022-12-07T17:50:08.355Z,2.00
2022-12-07T17:52:57.475Z,2.13
2022-12-07T17:55:26.502Z,2.05
2022-12-07T17:57:56.683Z,2.10
2022-12-07T18:00:25.410Z,2.17
2022-12-07T18:02:54.048Z,2.67
2022-12-07T18:05:22.921Z,2.95
2022-12-07T18:07:53.147Z,2.70
2022-12-07T18:10:21.998Z,2.25
2022-12-07T18:12:52.354Z,2.20
2022-12-07T18:15:22.791Z,1.85
2022-12-07T18:17:52.142Z,2.08
2022-12-07T18:20:21.023Z,2.13
2022-12-07T18:22:49.829Z,3.22
2022-12-07T18:25:19.489Z,2.50
2022-12-07T18:27:48.211Z,3.13
2022-12-07T18:30:17.351Z,2.97
2022-12-07T18:32:47.257Z,3.30
2022-12-07T18:35:16.099Z,2.83
2022-12-07T18:37:44.674Z,4.57
2022-12-07T18:40:14.989Z,7.53
2022-12-07T18:42:43.991Z,5.90
2022-12-07T18:45:13.442Z,5.57
2022-12-07T18:47:42.270Z,6.45
2022-12-07T18:50:12.597Z,6.50
2022-12-07T18:52:41.348Z,14.15
2022-12-07T18:55:10.458Z,13.75
2022-12-07T18:57:39.252Z,10.00
2022-12-07T19:00:09.692Z,7.20
2022-12-07T19:02:39.310Z,6.68
2022-12-07T19:05:08.326Z,6.55
2022-12-07T19:07:38.363Z,5.80
2022-12-07T19:10:09.570Z,5.50
2022-12-07T19:12:38.481Z,5.78
2022-12-07T19:15:08.986Z,7.32
2022-12-07T19:17:38.378Z,7.10
2022-12-07T19:20:10.248Z,7.47
2022-12-07T19:22:40.300Z,7.38
2022-12-07T19:25:09.775Z,7.25
2022-12-07T19:27:38.331Z,8.20
2022-12-07T19:30:10.629Z,8.20
2022-12-07T19:32:39.588Z,7.28
2022-12-07T19:35:09.255Z,6.85
2022-12-07T19:37:39.690Z,7.30
2022-12-07T19:40:10.099Z,7.53
2022-12-07T19:42:39.165Z,6.38
2022-12-07T19:45:08.798Z,5.97
2022-12-07T19:47:37.580Z,7.05
2022-12-07T19:50:07.487Z,6.40
2022-12-07T19:52:36.912Z,6.65
2022-12-07T19:55:08.487Z,6.03
2022-12-07T19:57:37.322Z,5.30
2022-12-07T20:00:07.633Z,4.85
2022-12-07T20:02:37.699Z,5.35
2022-12-07T20:05:07.467Z,5.10
2022-12-07T20:07:39.339Z,5.43
2022-12-07T20:10:10.925Z,5.43
2022-12-07T20:12:57.430Z,9.23
2022-12-07T20:15:26.252Z,8.10
2022-12-07T20:17:55.049Z,6.72
2022-12-07T20:20:23.842Z,5.43
2022-12-07T20:22:52.335Z,5.30
2022-12-07T20:25:22.521Z,4.35
2022-12-07T20:27:51.081Z,3.78
2022-12-07T20:30:20.053Z,3.90
2022-12-07T20:32:50.672Z,3.83
2022-12-07T20:35:19.224Z,3.60
2022-12-07T20:37:48.254Z,3.90
2022-12-07T20:40:17.102Z,3.58
2022-12-07T20:42:46.012Z,3.28
2022-12-07T20:45:14.535Z,3.75
2022-12-07T20:47:43.075Z,3.65
2022-12-07T20:50:12.452Z,4.07
2022-12-07T20:52:41.359Z,3.80
2022-12-07T20:55:10.491Z,3.50
2022-12-07T20:57:39.281Z,3.70
2022-12-07T21:00:11.146Z,5.43
2022-12-07T21:02:42.614Z,5.75
2022-12-07T21:05:11.612Z,5.55
2022-12-07T21:07:40.194Z,6.65
2022-12-07T21:10:09.890Z,6.68
2022-12-07T21:12:38.510Z,6.57
2022-12-07T21:15:10.401Z,6.20
2022-12-07T21:17:39.288Z,6.50
2022-12-07T21:20:09.974Z,5.95
2022-12-07T21:22:38.828Z,6.60
2022-12-07T21:25:07.998Z,6.05
2022-12-07T21:27:36.991Z,6.38
2022-12-07T21:30:06.617Z,5.88
2022-12-07T21:32:36.801Z,5.25
2022-12-07T21:35:06.562Z,4.38
2022-12-07T21:37:35.490Z,4.60
2022-12-07T21:40:04.859Z,4.50
2022-12-07T21:42:33.699Z,4.38
2022-12-07T21:45:02.940Z,4.28
2022-12-07T21:47:31.947Z,3.95
2022-12-07T21:50:01.930Z,3.70
2022-12-07T21:52:30.730Z,3.35
2022-12-07T21:54:59.536Z,3.90
2022-12-07T21:57:28.550Z,4.07
2022-12-07T21:59:57.085Z,4.03
2022-12-07T22:02:25.734Z,3.00
2022-12-07T22:04:54.593Z,3.10
2022-12-07T22:07:24.700Z,3.42
2022-12-07T22:09:53.500Z,3.50
2022-12-07T22:12:22.309Z,3.30
2022-12-07T22:15:10.570Z,3.92
2022-12-07T22:17:39.390Z,3.22
2022-12-07T22:20:09.526Z,3.78
2022-12-07T22:22:39.460Z,5.40
2022-12-07T22:25:09.888Z,5.17
2022-12-07T22:27:38.777Z,4.60
2022-12-07T22:30:10.198Z,2.80
2022-12-07T22:32:48.302Z,3.90
2022-12-07T22:35:18.008Z,3.58
2022-12-07T22:37:48.140Z,3.20
2022-12-07T22:40:17.284Z,3.33
2022-12-07T22:42:46.086Z,3.15
2022-12-07T22:45:14.884Z,3.78
2022-12-07T22:47:43.833Z,3.70
2022-12-07T22:50:13.091Z,3.25
2022-12-07T22:52:41.593Z,3.75
2022-12-07T22:55:11.886Z,3.15
2022-12-07T22:57:40.682Z,3.10
2022-12-07T23:00:11.544Z,3.40
2022-12-07T23:02:40.611Z,3.67
2022-12-07T23:05:10.536Z,3.25
2022-12-07T23:07:39.499Z,3.55
2022-12-07T23:10:11.404Z,3.58
2022-12-07T23:12:58.067Z,4.20
2022-12-07T23:15:26.671Z,3.97
2022-12-07T23:17:55.541Z,4.45
2022-12-07T23:20:24.243Z,5.00
2022-12-07T23:22:53.291Z,3.72
2022-12-07T23:25:23.589Z,3.13
2022-12-07T23:27:52.164Z,3.10
2022-12-07T23:30:21.221Z,4.32
2022-12-07T23:32:49.746Z,4.85
2022-12-07T23:35:18.589Z,2.97
2022-12-07T23:37:47.411Z,2.60
2022-12-07T23:40:16.024Z,2.80
2022-12-07T23:42:46.169Z,2.88
2022-12-07T23:45:14.970Z,2.95
2022-12-07T23:47:43.797Z,3.08
2022-12-07T23:50:12.727Z,3.45
2022-12-07T23:52:41.570Z,3.47
2022-12-07T23:55:11.333Z,3.00
2022-12-07T23:57:40.291Z,2.38
